Time;durP1;ratioP1;P1;durP2;ratioP2;P2;SDS_P1;SDS_P2;PMS_P1;PMS_P2;Temp;Humidity;BMP_temperature;BMP_pressure;BME280_temperature;BME280_humidity;BME280_pressure;Samples;Min_cycle;Max_cycle;Signal;HPM_P1;HPM_P2
2022/05/10 00:00:26;;;;;;;;;;;15.20;86.90;;;;;;5111452;28;20271;-91
2022/05/10 00:02:53;;;;;;;;;;;15.20;87.00;;;;;;5103378;28;19962;-91
2022/05/10 00:05:24;;;;;;;;;;;15.20;87.00;;;;;;5094590;28;19994;-91
2022/05/10 00:07:50;;;;;;;;;;;15.10;86.90;;;;;;5107184;28;19941;-91
2022/05/10 00:10:16;;;;;;;;;;;15.10;87.00;;;;;;5113581;28;20367;-91
2022/05/10 00:12:41;;;;;;;;;;;15.00;86.90;;;;;;5114913;28;19923;-91
2022/05/10 00:15:07;;;;;;;;;;;15.00;86.90;;;;;;5113489;28;20314;-91
2022/05/10 00:17:36;;;;;;;;;;;14.90;87.00;;;;;;5105653;28;19941;-91
2022/05/10 00:20:02;;;;;;;;;;;14.90;87.10;;;;;;5094305;28;19955;-91
2022/05/10 00:22:28;;;;;;;;;;;15.00;87.10;;;;;;5094179;28;19979;-91
2022/05/10 00:24:53;;;;;;;;;;;15.00;87.30;;;;;;5094156;28;19991;-91
2022/05/10 00:27:19;;;;;;;;;;;15.00;87.00;;;;;;5097599;28;19929;-91
2022/05/10 00:29:44;;;;;;;;;;;15.10;86.90;;;;;;5114509;28;20400;-91
2022/05/10 00:32:10;;;;;;;;;;;15.10;87.00;;;;;;5109581;28;20397;-91
2022/05/10 00:34:36;;;;;;;;;;;15.10;87.00;;;;;;5094006;28;19946;-91
2022/05/10 00:37:02;;;;;;;;;;;15.10;86.90;;;;;;5098719;28;19924;-91
2022/05/10 00:39:28;;;;;;;;;;;15.00;87.00;;;;;;5114291;28;19928;-91
2022/05/10 00:41:59;;;;;;;;;;;14.90;87.20;;;;;;5114346;28;19961;-90
2022/05/10 00:44:37;;;;;;;;;;;14.90;87.60;;;;;;5114276;28;20410;-91
2022/05/10 00:47:14;;;;;;;;;;;14.90;87.70;;;;;;5110600;28;20392;-91
2022/05/10 00:49:40;;;;;;;;;;;14.90;87.70;;;;;;5086020;22;19972;-91
2022/05/10 00:52:09;;;;;;;;;;;14.90;87.70;;;;;;5073568;28;19916;-90
2022/05/10 00:54:34;;;;;;;;;;;14.90;87.60;;;;;;5073564;28;19916;-91
2022/05/10 00:57:06;;;;;;;;;;;14.80;87.50;;;;;;5055351;28;19913;-91
2022/05/10 00:59:51;;;;;;;;;;;14.70;87.60;;;;;;5073657;28;19980;-91
2022/05/10 01:02:39;;;;;;;;;;;14.70;87.70;;;;;;5073079;28;19961;-91
2022/05/10 01:05:10;;;;;;;;;;;14.60;87.90;;;;;;5018536;28;20383;-91
2022/05/10 01:07:41;;;;;;;;;;;14.60;87.90;;;;;;5073305;28;19939;-91
2022/05/10 01:10:10;;;;;;;;;;;14.50;88.00;;;;;;5073349;28;19944;-90
2022/05/10 01:12:42;;;;;;;;;;;14.40;88.00;;;;;;5056475;28;19930;-90
2022/05/10 01:15:10;;;;;;;;;;;14.30;88.20;;;;;;5077891;28;19960;-91
2022/05/10 01:17:36;;;;;;;;;;;14.20;88.70;;;;;;5077345;28;19915;-90
2022/05/10 01:20:03;;;;;;;;;;;14.10;89.00;;;;;;5077617;28;19952;-90
2022/05/10 01:22:32;;;;;;;;;;;14.20;88.90;;;;;;5077276;28;20047;-91
2022/05/10 01:25:15;;;;;;;;;;;14.10;88.90;;;;;;5077326;28;19935;-91
2022/05/10 01:28:00;;;;;;;;;;;14.10;88.60;;;;;;5050172;28;20307;-91
2022/05/10 01:30:28;;;;;;;;;;;14.10;88.40;;;;;;5057233;28;19957;-90
2022/05/10 01:35:57;;;;;;;;;;;14.20;87.60;;;;;;5057383;28;20025;-90
2022/05/10 01:38:28;;;;;;;;;;;14.30;87.30;;;;;;5071205;28;19964;-91
2022/05/10 01:40:57;;;;;;;;;;;14.20;87.00;;;;;;5076918;28;19965;-90
2022/05/10 01:43:38;;;;;;;;;;;14.20;87.20;;;;;;5067475;28;19940;-90
2022/05/10 01:46:09;;;;;;;;;;;14.20;87.00;;;;;;5056841;28;20442;-91
2022/05/10 01:48:36;;;;;;;;;;;14.20;86.70;;;;;;5056678;28;19984;-91
2022/05/10 01:51:09;;;;;;;;;;;14.20;87.20;;;;;;5056849;28;19940;-90
2022/05/10 01:53:35;;;;;;;;;;;14.20;87.40;;;;;;5056878;28;19937;-91
2022/05/10 01:56:17;;;;;;;;;;;14.30;87.30;;;;;;5056752;28;19909;-91
2022/05/10 01:58:44;;;;;;;;;;;14.30;87.30;;;;;;5073160;28;19927;-91
2022/05/10 02:01:28;;;;;;;;;;;14.30;87.00;;;;;;5074641;28;20489;-91
2022/05/10 02:04:00;;;;;;;;;;;14.20;87.00;;;;;;5036646;28;19913;-91
2022/05/10 02:06:39;;;;;;;;;;;14.10;87.20;;;;;;5036647;28;20034;-90
2022/05/10 02:09:13;;;;;;;;;;;14.00;87.60;;;;;;5059428;28;19962;-90
2022/05/10 02:11:41;;;;;;;;;;;14.00;88.00;;;;;;5056545;28;19945;-91
2022/05/10 02:14:09;;;;;;;;;;;14.00;88.00;;;;;;5056439;28;19923;-91
2022/05/10 02:16:53;;;;;;;;;;;13.90;88.00;;;;;;5056372;28;19936;-90
2022/05/10 02:19:23;;;;;;;;;;;14.00;88.20;;;;;;5051045;28;19949;-90
2022/05/10 02:21:54;;;;;;;;;;;14.10;87.70;;;;;;5056416;28;19955;-90
2022/05/10 02:24:40;;;;;;;;;;;14.10;87.40;;;;;;5055795;28;20001;-91
2022/05/10 02:27:12;;;;;;;;;;;14.10;87.30;;;;;;5060391;28;19978;-91
2022/05/10 02:29:43;;;;;;;;;;;14.10;87.30;;;;;;5056005;28;19945;-91
2022/05/10 02:35:05;;;;;;;;;;;14.10;87.00;;;;;;5076337;28;20016;-91
2022/05/10 02:37:31;;;;;;;;;;;14.00;87.10;;;;;;5075492;28;20283;-91
2022/05/10 02:39:58;;;;;;;;;;;14.00;87.60;;;;;;5055816;28;19957;-90
2022/05/10 02:42:24;;;;;;;;;;;13.90;87.80;;;;;;5055697;28;19971;-91
2022/05/10 02:44:54;;;;;;;;;;;13.90;87.80;;;;;;5056147;28;19975;-91
2022/05/10 02:47:33;;;;;;;;;;;13.90;87.80;;;;;;5054359;28;19913;-90
2022/05/10 02:49:59;;;;;;;;;;;13.80;87.90;;;;;;5035663;28;19961;-91
2022/05/10 02:52:25;;;;;;;;;;;13.70;88.00;;;;;;5017893;28;20032;-91
2022/05/10 02:55:07;;;;;;;;;;;13.60;88.30;;;;;;5035765;28;19957;-91
2022/05/10 02:57:33;;;;;;;;;;;13.60;88.50;;;;;;5046363;28;19962;-90
2022/05/10 03:00:01;;;;;;;;;;;13.70;88.70;;;;;;5055351;28;20399;-91
2022/05/10 03:02:29;;;;;;;;;;;13.70;88.60;;;;;;5072009;28;19961;-91
2022/05/10 03:04:56;;;;;;;;;;;13.80;88.40;;;;;;5075434;28;19940;-90
2022/05/10 03:07:22;;;;;;;;;;;13.80;88.20;;;;;;5065943;28;19946;-90
2022/05/10 03:09:48;;;;;;;;;;;13.80;87.90;;;;;;5055185;28;20024;-91
2022/05/10 03:12:13;;;;;;;;;;;13.80;87.70;;;;;;5037389;28;20414;-91
2022/05/10 03:14:39;;;;;;;;;;;13.80;87.50;;;;;;5055264;28;19948;-91
2022/05/10 03:17:04;;;;;;;;;;;13.80;87.50;;;;;;5054710;28;19931;-91
2022/05/10 03:19:30;;;;;;;;;;;13.70;87.50;;;;;;5055125;28;19909;-90
2022/05/10 03:21:56;;;;;;;;;;;13.60;87.70;;;;;;5054964;28;20409;-90
2022/05/10 03:24:21;;;;;;;;;;;13.50;87.70;;;;;;5055112;28;20091;-90
2022/05/10 03:26:49;;;;;;;;;;;13.40;87.90;;;;;;5054812;28;19947;-90
2022/05/10 03:29:15;;;;;;;;;;;13.40;88.40;;;;;;5054908;28;19968;-90
2022/05/10 03:31:41;;;;;;;;;;;13.30;88.80;;;;;;5054838;28;19981;-91
2022/05/10 03:36:51;;;;;;;;;;;13.30;88.80;;;;;;5054512;28;20320;-90
2022/05/10 03:39:16;;;;;;;;;;;13.20;89.20;;;;;;5054677;28;19933;-91
2022/05/10 03:41:42;;;;;;;;;;;13.10;89.50;;;;;;5054628;28;19993;-91
2022/05/10 03:44:07;;;;;;;;;;;13.10;89.60;;;;;;5054570;28;19921;-90
2022/05/10 03:46:33;;;;;;;;;;;13.20;89.70;;;;;;5036620;28;19941;-91
2022/05/10 03:48:58;;;;;;;;;;;13.20;89.60;;;;;;5054347;28;19982;-90
2022/05/10 03:51:24;;;;;;;;;;;13.30;89.40;;;;;;5053326;28;19989;-91
2022/05/10 03:53:50;;;;;;;;;;;13.30;89.20;;;;;;5054435;28;19942;-91
2022/05/10 03:56:15;;;;;;;;;;;13.30;89.10;;;;;;5054584;28;19962;-91
2022/05/10 03:58:41;;;;;;;;;;;13.30;89.00;;;;;;5054337;28;19958;-91
2022/05/10 04:01:07;;;;;;;;;;;13.30;89.00;;;;;;5053868;28;19946;-90
2022/05/10 04:03:33;;;;;;;;;;;13.30;88.90;;;;;;5054289;28;19961;-90
2022/05/10 04:05:59;;;;;;;;;;;13.20;89.30;;;;;;5036319;28;19947;-90
2022/05/10 04:08:24;;;;;;;;;;;13.10;89.60;;;;;;5054056;28;20401;-90
2022/05/10 04:17:52;;;;;;;;;;;13.10;89.60;;;;;;5132155;27;19956;-90
2022/05/10 04:20:18;;;;;;;;;;;13.30;88.60;;;;;;5131859;28;19918;-91
2022/05/10 04:22:43;;;;;;;;;;;13.30;88.30;;;;;;5130876;28;19960;-90
2022/05/10 04:25:09;;;;;;;;;;;13.40;88.50;;;;;;5113470;28;20372;-90
2022/05/10 04:27:35;;;;;;;;;;;13.40;88.20;;;;;;5131642;28;19942;-91
2022/05/10 04:30:01;;;;;;;;;;;13.40;88.20;;;;;;5112068;28;20395;-90
2022/05/10 04:32:26;;;;;;;;;;;13.50;88.10;;;;;;5122947;28;20272;-90
2022/05/10 04:34:52;;;;;;;;;;;13.50;88.10;;;;;;5131528;28;19931;-90
2022/05/10 04:37:17;;;;;;;;;;;13.50;88.10;;;;;;5131408;28;20031;-90
2022/05/10 04:42:27;;;;;;;;;;;13.60;88.00;;;;;;5124547;28;19999;-90
2022/05/10 04:44:52;;;;;;;;;;;13.60;88.00;;;;;;5131310;28;20369;-90
2022/05/10 04:47:18;;;;;;;;;;;13.60;87.90;;;;;;5120775;28;19929;-90
2022/05/10 04:49:43;;;;;;;;;;;13.80;87.40;;;;;;5110727;28;20337;-90
2022/05/10 04:52:10;;;;;;;;;;;13.80;87.10;;;;;;5110554;28;20299;-90
2022/05/10 04:54:35;;;;;;;;;;;13.90;86.90;;;;;;5111032;28;20001;-91
2022/05/10 04:57:01;;;;;;;;;;;13.90;86.60;;;;;;5114394;28;20065;-91
2022/05/10 04:59:27;;;;;;;;;;;14.10;86.60;;;;;;5109644;28;19932;-91
2022/05/10 05:01:52;;;;;;;;;;;14.20;86.60;;;;;;5112009;28;19924;-90
2022/05/10 05:04:18;;;;;;;;;;;14.30;86.30;;;;;;5117792;28;19936;-90
2022/05/10 05:06:43;;;;;;;;;;;14.40;85.90;;;;;;5109754;28;19942;-91
2022/05/10 05:09:10;;;;;;;;;;;14.50;86.10;;;;;;5109747;28;19938;-90
2022/05/10 05:11:36;;;;;;;;;;;14.60;85.80;;;;;;5109748;28;20407;-90
2022/05/10 05:14:01;;;;;;;;;;;14.70;85.30;;;;;;5110306;28;19954;-90
2022/05/10 05:16:27;;;;;;;;;;;14.70;85.40;;;;;;5100907;28;19958;-90
2022/05/10 05:18:53;;;;;;;;;;;14.60;86.00;;;;;;5089426;28;20385;-90
2022/05/10 05:21:18;;;;;;;;;;;14.60;85.40;;;;;;5089415;28;20406;-91
2022/05/10 05:23:44;;;;;;;;;;;14.60;85.40;;;;;;5089369;28;19979;-90
2022/05/10 05:26:10;;;;;;;;;;;14.60;85.00;;;;;;5089479;28;20385;-90
2022/05/10 05:28:36;;;;;;;;;;;14.70;85.60;;;;;;5079177;28;19931;-90
2022/05/10 05:31:02;;;;;;;;;;;14.80;86.00;;;;;;5074852;28;19935;-91
2022/05/10 05:33:27;;;;;;;;;;;14.80;85.70;;;;;;5073537;28;20025;-90
2022/05/10 05:35:53;;;;;;;;;;;14.90;85.20;;;;;;5072921;28;20117;-91
2022/05/10 05:38:18;;;;;;;;;;;14.90;85.40;;;;;;5075370;28;19952;-90
2022/05/10 05:40:44;;;;;;;;;;;15.00;85.20;;;;;;5074294;28;19950;-89
2022/05/10 05:43:15;;;;;;;;;;;15.20;84.70;;;;;;5074189;28;19954;-91
2022/05/10 05:45:41;;;;;;;;;;;15.30;84.60;;;;;;5074316;28;20051;-90
2022/05/10 05:48:07;;;;;;;;;;;15.30;84.10;;;;;;5071988;28;20017;-91
2022/05/10 05:50:32;;;;;;;;;;;15.40;83.30;;;;;;5054763;28;19936;-91
2022/05/10 05:52:58;;;;;;;;;;;15.60;83.10;;;;;;5073302;28;19995;-91
2022/05/10 05:55:23;;;;;;;;;;;15.70;82.40;;;;;;5074204;28;19943;-90
2022/05/10 05:57:49;;;;;;;;;;;15.80;82.30;;;;;;5053686;28;20014;-90
2022/05/10 06:00:17;;;;;;;;;;;15.90;82.20;;;;;;5073868;28;19957;-91
2022/05/10 06:02:43;;;;;;;;;;;16.00;81.90;;;;;;5071805;28;19989;-90
2022/05/10 06:05:09;;;;;;;;;;;16.20;81.80;;;;;;5078463;28;19966;-91
2022/05/10 06:07:34;;;;;;;;;;;16.30;81.80;;;;;;5072441;28;19995;-90
2022/05/10 06:10:00;;;;;;;;;;;16.40;81.60;;;;;;5070287;28;19984;-91
2022/05/10 06:12:25;;;;;;;;;;;16.40;80.60;;;;;;5071735;28;20011;-90
2022/05/10 06:14:51;;;;;;;;;;;16.60;80.30;;;;;;5073469;28;19940;-90
2022/05/10 06:17:17;;;;;;;;;;;16.70;80.10;;;;;;5090424;28;19979;-91
2022/05/10 06:19:44;;;;;;;;;;;16.80;77.90;;;;;;5090556;28;20028;-90
2022/05/10 06:22:10;;;;;;;;;;;16.80;77.60;;;;;;5087255;28;19941;-90
2022/05/10 06:24:36;;;;;;;;;;;17.00;77.70;;;;;;5097334;28;20390;-90
2022/05/10 06:27:02;;;;;;;;;;;17.10;76.50;;;;;;5082187;28;19928;-91
2022/05/10 06:29:28;;;;;;;;;;;17.20;76.20;;;;;;5075181;28;20017;-90
2022/05/10 06:31:53;;;;;;;;;;;17.20;76.50;;;;;;5089773;28;20288;-91
2022/05/10 06:34:19;;;;;;;;;;;17.30;76.20;;;;;;5082311;28;20515;-90
2022/05/10 06:36:45;;;;;;;;;;;17.40;77.50;;;;;;5085221;28;20416;-90
2022/05/10 06:39:10;;;;;;;;;;;17.50;76.10;;;;;;5084905;28;19956;-91
2022/05/10 06:41:36;;;;;;;;;;;17.60;75.50;;;;;;5088718;28;20317;-91
2022/05/10 06:44:03;;;;;;;;;;;17.60;76.80;;;;;;5089524;28;19951;-91
2022/05/10 06:46:31;;;;;;;;;;;17.80;77.00;;;;;;5092919;28;19932;-90
2022/05/10 06:48:56;;;;;;;;;;;17.80;76.40;;;;;;5087398;28;19925;-91
2022/05/10 06:51:22;;;;;;;;;;;17.80;76.80;;;;;;5094427;28;19950;-91
2022/05/10 06:53:48;;;;;;;;;;;17.90;75.40;;;;;;5089732;28;19952;-90
2022/05/10 06:56:14;;;;;;;;;;;18.00;74.90;;;;;;5085898;28;19968;-91
2022/05/10 06:58:39;;;;;;;;;;;18.10;75.40;;;;;;5090011;28;20020;-91
2022/05/10 07:01:10;;;;;;;;;;;18.20;74.50;;;;;;5087925;28;19941;-90
2022/05/10 07:03:35;;;;;;;;;;;18.30;74.40;;;;;;5079586;28;19924;-90
2022/05/10 07:09:49;;;;;;;;;;;18.40;73.20;;;;;;5089233;27;2008450;-91
2022/05/10 07:12:15;;;;;;;;;;;18.60;73.30;;;;;;5151564;27;20292;-90
2022/05/10 07:14:43;;;;;;;;;;;18.70;73.40;;;;;;5147680;27;20053;-91
2022/05/10 07:17:08;;;;;;;;;;;18.70;73.40;;;;;;5146359;27;20398;-90
2022/05/10 07:19:34;;;;;;;;;;;18.80;73.00;;;;;;5151602;27;19941;-90
2022/05/10 07:21:59;;;;;;;;;;;18.80;73.30;;;;;;5140884;27;19956;-90
2022/05/10 07:24:25;;;;;;;;;;;18.90;72.40;;;;;;5125337;27;19919;-91
2022/05/10 07:26:50;;;;;;;;;;;18.90;73.10;;;;;;5133575;27;19914;-90
2022/05/10 07:29:16;;;;;;;;;;;19.00;72.30;;;;;;5123735;27;19961;-90
2022/05/10 07:31:42;;;;;;;;;;;19.10;73.20;;;;;;5116658;28;19944;-90
2022/05/10 07:34:08;;;;;;;;;;;19.20;70.50;;;;;;5121340;28;20433;-90
2022/05/10 07:36:34;;;;;;;;;;;19.20;71.30;;;;;;5115562;28;19950;-90
2022/05/10 07:39:04;;;;;;;;;;;19.30;69.30;;;;;;5125078;27;19912;-90
2022/05/10 07:41:30;;;;;;;;;;;19.30;69.60;;;;;;5115913;28;19939;-91
2022/05/10 07:43:56;;;;;;;;;;;19.50;69.30;;;;;;5092473;28;19926;-90
2022/05/10 07:46:22;;;;;;;;;;;19.50;69.80;;;;;;5112332;28;19915;-90
2022/05/10 07:48:47;;;;;;;;;;;19.70;69.70;;;;;;5113555;28;19952;-90
2022/05/10 07:51:13;;;;;;;;;;;19.80;69.00;;;;;;5130256;27;19922;-90
2022/05/10 07:53:40;;;;;;;;;;;19.80;69.00;;;;;;5124457;27;20308;-90
2022/05/10 07:56:06;;;;;;;;;;;19.90;66.70;;;;;;5121290;28;19916;-91
2022/05/10 07:58:32;;;;;;;;;;;20.00;67.40;;;;;;5116179;28;19942;-89
2022/05/10 08:00:59;;;;;;;;;;;20.10;66.60;;;;;;5121343;28;20296;-90
2022/05/10 08:03:25;;;;;;;;;;;20.20;67.20;;;;;;5116187;27;20019;-90
2022/05/10 08:05:52;;;;;;;;;;;20.30;67.20;;;;;;5125648;27;19939;-90
2022/05/10 08:08:17;;;;;;;;;;;20.40;68.70;;;;;;5134574;27;19926;-91
2022/05/10 08:10:44;;;;;;;;;;;20.50;67.60;;;;;;5132253;27;20010;-91
2022/05/10 08:13:13;;;;;;;;;;;20.60;65.80;;;;;;5119528;27;19927;-90
2022/05/10 08:15:39;;;;;;;;;;;20.70;67.50;;;;;;5122430;27;19912;-90
2022/05/10 08:18:06;;;;;;;;;;;20.80;66.00;;;;;;5125641;27;20026;-90
2022/05/10 08:20:31;;;;;;;;;;;20.80;64.20;;;;;;5112626;27;19920;-90
2022/05/10 08:22:57;;;;;;;;;;;20.80;64.30;;;;;;5100487;27;19955;-90
2022/05/10 08:25:22;;;;;;;;;;;20.80;63.00;;;;;;5101338;28;19919;-91
2022/05/10 08:27:48;;;;;;;;;;;20.90;63.60;;;;;;5111879;28;20007;-90
2022/05/10 08:30:13;;;;;;;;;;;20.90;62.80;;;;;;5099357;28;19949;-90
2022/05/10 08:32:39;;;;;;;;;;;21.00;64.50;;;;;;5101417;27;19912;-91
2022/05/10 08:35:06;;;;;;;;;;;21.10;63.10;;;;;;5104482;28;20380;-91
2022/05/10 08:37:32;;;;;;;;;;;21.20;63.00;;;;;;5121062;27;19912;-90
2022/05/10 08:39:58;;;;;;;;;;;21.30;62.50;;;;;;5101996;28;19919;-90
2022/05/10 08:42:26;;;;;;;;;;;21.30;62.20;;;;;;5108677;27;19955;-91
2022/05/10 08:44:59;;;;;;;;;;;21.30;59.50;;;;;;5080372;28;20281;-90
2022/05/10 08:47:25;;;;;;;;;;;21.40;59.60;;;;;;5097329;28;20308;-91
2022/05/10 08:49:53;;;;;;;;;;;21.50;62.90;;;;;;5106468;27;19916;-90
2022/05/10 08:52:21;;;;;;;;;;;21.50;60.60;;;;;;5107438;28;19912;-90
2022/05/10 08:54:47;;;;;;;;;;;21.50;60.80;;;;;;5107814;28;19916;-90
2022/05/10 08:57:18;;;;;;;;;;;21.50;60.30;;;;;;5110252;27;19912;-90
2022/05/10 09:00:03;;;;;;;;;;;21.70;63.50;;;;;;5099103;28;19962;-89
2022/05/10 09:02:28;;;;;;;;;;;21.80;61.40;;;;;;5105656;27;19912;-90
2022/05/10 09:04:57;;;;;;;;;;;21.80;59.80;;;;;;5084508;28;19938;-90
2022/05/10 09:07:22;;;;;;;;;;;21.80;60.20;;;;;;5113173;27;19973;-90
2022/05/10 09:09:49;;;;;;;;;;;21.90;59.60;;;;;;5121845;27;20386;-90
2022/05/10 09:12:24;;;;;;;;;;;22.00;58.80;;;;;;5117747;27;19911;-90
2022/05/10 09:14:54;;;;;;;;;;;22.00;60.70;;;;;;5114131;27;20019;-90
2022/05/10 09:17:20;;;;;;;;;;;22.10;58.30;;;;;;5100960;28;19977;-90
2022/05/10 09:19:46;;;;;;;;;;;22.10;56.40;;;;;;5098205;28;20384;-90
2022/05/10 09:22:41;;;;;;;;;;;22.20;57.50;;;;;;5105808;28;20368;-90
2022/05/10 09:25:13;;;;;;;;;;;22.30;60.10;;;;;;5076863;28;20041;-90
2022/05/10 09:27:39;;;;;;;;;;;22.40;58.40;;;;;;5094703;28;19913;-91
2022/05/10 09:30:05;;;;;;;;;;;22.50;57.40;;;;;;5112778;28;20322;-91
2022/05/10 09:35:27;;;;;;;;;;;22.60;56.30;;;;;;5107166;28;20383;-90
2022/05/10 09:37:55;;;;;;;;;;;22.70;58.20;;;;;;5097305;28;19912;-90
2022/05/10 09:40:32;;;;;;;;;;;22.70;55.50;;;;;;5102500;28;19908;-90
2022/05/10 09:43:17;;;;;;;;;;;22.80;60.30;;;;;;5114530;27;19911;-91
2022/05/10 09:45:44;;;;;;;;;;;22.80;57.40;;;;;;5097986;28;19934;-91
2022/05/10 09:48:14;;;;;;;;;;;22.60;54.60;;;;;;5098731;28;19916;-90
2022/05/10 09:50:39;;;;;;;;;;;22.70;58.70;;;;;;5105618;28;19918;-89
2022/05/10 09:53:11;;;;;;;;;;;22.80;58.50;;;;;;5101362;28;19912;-91
2022/05/10 09:55:37;;;;;;;;;;;22.90;57.90;;;;;;5107201;28;19986;-91
2022/05/10 09:58:16;;;;;;;;;;;22.90;55.80;;;;;;5096179;28;19919;-90
2022/05/10 10:00:44;;;;;;;;;;;23.00;58.10;;;;;;5111222;28;19918;-91
2022/05/10 10:03:21;;;;;;;;;;;23.00;55.40;;;;;;5098906;28;19911;-91
2022/05/10 10:05:47;;;;;;;;;;;23.00;56.50;;;;;;5102871;28;19922;-90
2022/05/10 10:08:12;;;;;;;;;;;23.20;54.70;;;;;;5096891;28;19932;-91
2022/05/10 10:10:38;;;;;;;;;;;23.20;57.00;;;;;;5114505;28;19908;-90
2022/05/10 10:13:22;;;;;;;;;;;23.30;54.70;;;;;;5106891;28;19962;-89
2022/05/10 10:15:48;;;;;;;;;;;23.40;54.50;;;;;;5102907;28;19912;-90
2022/05/10 10:18:33;;;;;;;;;;;23.40;57.90;;;;;;5093967;28;19919;-90
2022/05/10 10:20:59;;;;;;;;;;;23.50;54.90;;;;;;5093813;28;20013;-90
2022/05/10 10:23:28;;;;;;;;;;;23.50;54.90;;;;;;5093619;28;20384;-90
2022/05/10 10:25:57;;;;;;;;;;;23.60;53.50;;;;;;5094125;28;19923;-90
2022/05/10 10:28:27;;;;;;;;;;;23.60;54.90;;;;;;5113395;28;19915;-91
2022/05/10 10:30:59;;;;;;;;;;;23.70;54.90;;;;;;5096999;28;19920;-90
2022/05/10 10:33:41;;;;;;;;;;;23.80;54.80;;;;;;5108939;28;19912;-90
2022/05/10 10:36:16;;;;;;;;;;;23.80;53.70;;;;;;5109874;28;19918;-90
2022/05/10 10:38:41;;;;;;;;;;;23.80;56.60;;;;;;5103248;28;19915;-90
2022/05/10 10:41:21;;;;;;;;;;;23.80;47.60;;;;;;5105976;28;19908;-91
2022/05/10 10:43:54;;;;;;;;;;;23.70;49.40;;;;;;5107768;28;19919;-91
2022/05/10 10:46:30;;;;;;;;;;;23.90;48.30;;;;;;5106371;28;19914;-91
2022/05/10 10:48:59;;;;;;;;;;;24.10;49.60;;;;;;5095728;28;19916;-90
2022/05/10 10:51:29;;;;;;;;;;;24.20;50.40;;;;;;5101229;27;19984;-90
2022/05/10 10:53:55;;;;;;;;;;;24.30;52.00;;;;;;5101948;28;19916;-91
2022/05/10 10:56:34;;;;;;;;;;;24.30;55.80;;;;;;5112864;28;19908;-91
2022/05/10 10:59:15;;;;;;;;;;;24.40;52.80;;;;;;5075379;28;20002;-91
2022/05/10 11:01:43;;;;;;;;;;;24.60;53.00;;;;;;5093311;28;19912;-90
2022/05/10 11:04:27;;;;;;;;;;;24.70;52.30;;;;;;5095997;28;19959;-91
2022/05/10 11:06:54;;;;;;;;;;;24.80;52.30;;;;;;5108819;28;19912;-91
2022/05/10 11:09:39;;;;;;;;;;;24.90;55.80;;;;;;5093787;28;19926;-91
2022/05/10 11:12:23;;;;;;;;;;;24.80;46.30;;;;;;5093218;28;19934;-90
2022/05/10 11:14:51;;;;;;;;;;;24.60;49.70;;;;;;5105295;28;19915;-91
2022/05/10 11:17:23;;;;;;;;;;;24.50;47.50;;;;;;5098441;28;19911;-90
2022/05/10 11:19:49;;;;;;;;;;;24.40;45.50;;;;;;5093465;28;19908;-90
2022/05/10 11:22:17;;;;;;;;;;;24.70;45.20;;;;;;5102369;28;19916;-90
2022/05/10 11:24:45;;;;;;;;;;;24.90;44.60;;;;;;5112164;28;19918;-90
2022/05/10 11:27:28;;;;;;;;;;;25.10;46.50;;;;;;5106360;28;19919;-91
2022/05/10 11:30:03;;;;;;;;;;;25.40;51.60;;;;;;5110647;28;19942;-91
2022/05/10 11:32:32;;;;;;;;;;;25.50;48.00;;;;;;5104032;28;19912;-90
2022/05/10 11:35:06;;;;;;;;;;;25.40;49.80;;;;;;5093154;28;19920;-91
2022/05/10 11:37:50;;;;;;;;;;;25.50;47.30;;;;;;5101507;28;19912;-90
2022/05/10 11:40:19;;;;;;;;;;;25.60;49.50;;;;;;5093661;28;19912;-91
2022/05/10 11:42:47;;;;;;;;;;;25.60;52.10;;;;;;5133027;28;19916;-91
2022/05/10 11:45:18;;;;;;;;;;;25.50;48.60;;;;;;5101546;28;19912;-91
2022/05/10 11:48:02;;;;;;;;;;;25.60;51.60;;;;;;5120199;28;19915;-91
2022/05/10 11:50:34;;;;;;;;;;;25.60;49.50;;;;;;5098123;28;19972;-90
2022/05/10 11:53:25;;;;;;;;;;;25.70;49.60;;;;;;5111048;28;19912;-91
2022/05/10 11:55:54;;;;;;;;;;;26.00;48.20;;;;;;5101703;28;19912;-90
2022/05/10 11:58:20;;;;;;;;;;;26.50;49.70;;;;;;5106196;28;20362;-91
2022/05/10 12:00:50;;;;;;;;;;;27.00;47.70;;;;;;5099891;28;20046;-91
2022/05/10 12:03:34;;;;;;;;;;;26.70;44.60;;;;;;5098630;28;19912;-91
2022/05/10 12:06:22;;;;;;;;;;;26.70;46.10;;;;;;5100991;28;19912;-91
2022/05/10 12:08:52;;;;;;;;;;;26.80;47.70;;;;;;5107525;27;19926;-90
2022/05/10 12:11:34;;;;;;;;;;;26.70;47.50;;;;;;5101378;28;19912;-91
2022/05/10 12:22:59;;;;;;;;;;;27.00;43.70;;;;;;5103281;28;19919;-91
2022/05/10 12:25:44;;;;;;;;;;;27.40;43.10;;;;;;5103049;28;19916;-91
2022/05/10 12:28:10;;;;;;;;;;;26.70;43.60;;;;;;5096955;28;19956;-91
2022/05/10 12:30:36;;;;;;;;;;;26.70;42.40;;;;;;5102698;28;19912;-91
2022/05/10 12:33:20;;;;;;;;;;;27.00;41.00;;;;;;5089224;28;20262;-92
2022/05/10 12:35:48;;;;;;;;;;;27.50;41.30;;;;;;5104184;28;19912;-91
2022/05/10 12:38:52;;;;;;;;;;;27.70;40.50;;;;;;5097092;28;19919;-90
2022/05/10 12:41:36;;;;;;;;;;;27.90;40.50;;;;;;5008170;28;19914;-92
2022/05/10 12:44:09;;;;;;;;;;;28.60;42.30;;;;;;5007900;28;20539;-92
2022/05/10 12:46:41;;;;;;;;;;;28.40;38.70;;;;;;5081247;27;19912;-92
2022/05/10 12:49:09;;;;;;;;;;;28.10;41.10;;;;;;5095467;28;20010;-92
2022/05/10 12:51:48;;;;;;;;;;;28.20;38.30;;;;;;5111562;27;20373;-92
2022/05/10 12:54:21;;;;;;;;;;;29.00;40.60;;;;;;5099988;28;19919;-92
2022/05/10 12:57:01;;;;;;;;;;;30.00;37.70;;;;;;5102160;28;20010;-91
2022/05/10 12:59:31;;;;;;;;;;;30.60;37.90;;;;;;5105013;28;19912;-92
2022/05/10 13:01:57;;;;;;;;;;;30.40;38.20;;;;;;5096015;28;19957;-91
2022/05/10 13:04:26;;;;;;;;;;;30.20;38.10;;;;;;5116296;27;19919;-90
2022/05/10 13:07:11;;;;;;;;;;;30.50;37.90;;;;;;5115026;27;19912;-92
2022/05/10 13:09:38;;;;;;;;;;;31.00;37.30;;;;;;5100563;28;20008;-92
2022/05/10 13:12:12;;;;;;;;;;;31.10;32.50;;;;;;5100130;28;19966;-91
2022/05/10 13:14:39;;;;;;;;;;;31.30;35.80;;;;;;5104363;28;19912;-91
2022/05/10 13:17:05;;;;;;;;;;;31.70;33.60;;;;;;5100148;28;19923;-92
2022/05/10 13:19:36;;;;;;;;;;;31.30;34.50;;;;;;5096977;28;19916;-92
2022/05/10 13:22:05;;;;;;;;;;;30.40;35.30;;;;;;5098146;28;20288;-91
2022/05/10 13:24:31;;;;;;;;;;;30.10;39.20;;;;;;5087624;28;20279;-91
2022/05/10 13:27:01;;;;;;;;;;;30.40;35.10;;;;;;5107224;27;19913;-92
2022/05/10 13:29:38;;;;;;;;;;;31.20;35.90;;;;;;5096605;28;19916;-92
2022/05/10 13:32:06;;;;;;;;;;;30.90;35.10;;;;;;5098264;28;19920;-92
2022/05/10 13:34:32;;;;;;;;;;;30.30;38.40;;;;;;5098946;28;20010;-92
2022/05/10 13:36:57;;;;;;;;;;;29.90;33.00;;;;;;5101802;28;20039;-91
2022/05/10 13:39:28;;;;;;;;;;;30.20;37.20;;;;;;5099782;28;19911;-92
2022/05/10 13:41:58;;;;;;;;;;;31.30;34.70;;;;;;5103330;28;19919;-92
2022/05/10 13:44:24;;;;;;;;;;;31.70;31.50;;;;;;5104520;28;19912;-92
2022/05/10 13:46:54;;;;;;;;;;;32.00;30.40;;;;;;5098484;28;19912;-92
2022/05/10 13:49:25;;;;;;;;;;;32.40;30.70;;;;;;5103942;28;19924;-92
2022/05/10 13:51:54;;;;;;;;;;;32.20;29.40;;;;;;5105540;28;19989;-92
2022/05/10 13:54:30;;;;;;;;;;;32.20;29.90;;;;;;5095807;28;19919;-92
2022/05/10 13:57:09;;;;;;;;;;;31.80;31.90;;;;;;5100055;28;19964;-91
2022/05/10 13:59:35;;;;;;;;;;;31.90;35.00;;;;;;5112603;27;19916;-92
2022/05/10 14:02:05;;;;;;;;;;;31.50;31.70;;;;;;5109760;27;20276;-92
2022/05/10 14:04:31;;;;;;;;;;;31.00;32.20;;;;;;5089663;27;19911;-92
2022/05/10 14:07:03;;;;;;;;;;;30.50;33.10;;;;;;5102418;28;19957;-92
2022/05/10 14:09:34;;;;;;;;;;;30.30;32.50;;;;;;5104426;27;19928;-92
2022/05/10 14:12:00;;;;;;;;;;;30.50;32.40;;;;;;5098493;28;20372;-92
2022/05/10 14:14:30;;;;;;;;;;;31.20;32.90;;;;;;5098603;28;19916;-92
2022/05/10 14:16:59;;;;;;;;;;;31.80;31.90;;;;;;5109276;27;19962;-92
2022/05/10 14:19:33;;;;;;;;;;;32.50;29.40;;;;;;5102011;28;20277;-92
2022/05/10 14:22:01;;;;;;;;;;;33.60;28.90;;;;;;5089845;28;19912;-92
2022/05/10 14:24:27;;;;;;;;;;;33.40;31.20;;;;;;5095644;28;19919;-92
2022/05/10 14:27:04;;;;;;;;;;;33.70;27.70;;;;;;5099230;28;19920;-92
2022/05/10 14:29:49;;;;;;;;;;;33.40;29.30;;;;;;5095211;27;19923;-92
2022/05/10 14:32:29;;;;;;;;;;;33.80;29.00;;;;;;5083589;28;20262;-91
2022/05/10 14:34:56;;;;;;;;;;;33.90;26.00;;;;;;5098196;28;20399;-91
2022/05/10 14:37:36;;;;;;;;;;;34.20;28.00;;;;;;5097360;28;19912;-91
2022/05/10 14:40:21;;;;;;;;;;;32.80;29.80;;;;;;5118918;27;19918;-92
2022/05/10 14:43:05;;;;;;;;;;;31.20;30.90;;;;;;5106828;28;19995;-92
2022/05/10 14:45:39;;;;;;;;;;;30.90;31.90;;;;;;5104349;28;19958;-91
2022/05/10 14:48:23;;;;;;;;;;;31.00;31.10;;;;;;5095899;28;20021;-92
2022/05/10 14:50:58;;;;;;;;;;;32.00;31.10;;;;;;5103202;28;20006;-92
2022/05/10 14:53:28;;;;;;;;;;;32.80;32.60;;;;;;5102942;27;19912;-92
2022/05/10 14:56:05;;;;;;;;;;;33.70;26.60;;;;;;5113474;27;19919;-91
2022/05/10 14:58:42;;;;;;;;;;;33.60;29.70;;;;;;5097942;27;19911;-92
2022/05/10 15:01:14;;;;;;;;;;;33.70;29.20;;;;;;5100487;28;19947;-92
2022/05/10 15:03:40;;;;;;;;;;;32.70;28.50;;;;;;5098869;28;19918;-91